Time;durP1;ratioP1;P1;durP2;ratioP2;P2;SDS_P1;SDS_P2;PMS_P1;PMS_P2;Temp;Humidity;BMP_temperature;BMP_pressure;BME280_temperature;BME280_humidity;BME280_pressure;Samples;Min_cycle;Max_cycle;Signal;HPM_P1;HPM_P2
2022/03/18 00:00:51;;;;;;;51.80;25.92;;;;;;;2.13;51.39;103037.09;1647577;85;26564;-76
2022/03/18 00:03:17;;;;;;;57.00;26.55;;;;;;;2.10;51.38;103038.54;1639947;87;28414;-77
2022/03/18 00:05:43;;;;;;;56.28;25.88;;;;;;;2.07;51.33;103035.20;1638255;87;25329;-76
2022/03/18 00:08:10;;;;;;;51.23;26.42;;;;;;;2.02;51.38;103031.45;1638262;87;25833;-76
2022/03/18 00:10:37;;;;;;;53.52;25.75;;;;;;;2.03;51.39;103037.59;1638613;87;26378;-75
2022/03/18 00:13:04;;;;;;;50.33;24.95;;;;;;;2.00;51.45;103037.73;1638477;87;25861;-76
2022/03/18 00:15:31;;;;;;;47.03;24.05;;;;;;;1.96;51.56;103042.77;1638518;87;28473;-76
2022/03/18 00:17:57;;;;;;;46.48;23.22;;;;;;;1.93;51.69;103046.41;1638555;87;26526;-77
2022/03/18 00:20:24;;;;;;;48.38;23.87;;;;;;;1.91;51.73;103051.37;1638662;87;26041;-75
2022/03/18 00:22:51;;;;;;;42.73;22.77;;;;;;;1.91;51.72;103050.91;1638551;87;26563;-75
2022/03/18 00:25:19;;;;;;;46.02;23.02;;;;;;;1.88;51.64;103045.75;1638967;87;25848;-76
2022/03/18 00:27:47;;;;;;;41.23;22.25;;;;;;;1.84;51.65;103046.83;1639177;87;27472;-77
2022/03/18 00:30:16;;;;;;;47.53;23.73;;;;;;;1.80;51.70;103047.91;1638907;87;26009;-76
2022/03/18 00:32:45;;;;;;;46.77;23.32;;;;;;;1.76;51.81;103045.02;1638580;87;25776;-77
2022/03/18 00:35:11;;;;;;;50.30;22.62;;;;;;;1.77;51.95;103045.88;1638797;87;25919;-76
2022/03/18 00:37:39;;;;;;;44.40;21.52;;;;;;;1.72;51.84;103045.22;1638951;87;25929;-76
2022/03/18 00:40:09;;;;;;;37.93;20.88;;;;;;;1.67;52.05;103044.59;1638788;87;27561;-77
2022/03/18 00:42:36;;;;;;;41.53;21.85;;;;;;;1.62;52.19;103043.48;1638473;87;26093;-77
2022/03/18 00:45:04;;;;;;;39.90;20.17;;;;;;;1.58;52.14;103052.48;1638670;87;26645;-76
2022/03/18 00:53:01;;;;;;;45.98;21.35;;;;;;;1.49;52.69;103056.39;1641164;87;27495;-75
2022/03/18 00:55:27;;;;;;;39.73;21.27;;;;;;;1.43;52.70;103059.28;1641580;87;25982;-76
2022/03/18 00:57:55;;;;;;;38.60;20.95;;;;;;;1.44;52.75;103062.78;1641403;87;25736;-76
2022/03/18 01:00:22;;;;;;;43.15;22.90;;;;;;;1.41;52.79;103055.85;1641496;87;25833;-76
2022/03/18 01:02:48;;;;;;;42.27;21.50;;;;;;;1.43;52.94;103059.77;1641142;86;25815;-77
2022/03/18 01:05:14;;;;;;;43.65;20.82;;;;;;;1.42;52.88;103059.36;1641022;86;28301;-76
2022/03/18 01:07:40;;;;;;;47.95;22.30;;;;;;;1.40;52.98;103055.47;1638739;87;26544;-76
2022/03/18 01:10:07;;;;;;;46.55;22.70;;;;;;;1.36;53.07;103060.50;1637189;87;25352;-76
2022/03/18 01:12:34;;;;;;;58.55;32.05;;;;;;;1.34;53.08;103058.39;1641025;87;25851;-76
2022/03/18 01:15:00;;;;;;;46.98;28.35;;;;;;;1.31;53.14;103059.84;1641096;87;25827;-76
2022/03/18 01:17:26;;;;;;;45.35;25.57;;;;;;;1.28;53.35;103063.91;1641034;87;28286;-76
2022/03/18 01:19:52;;;;;;;42.45;22.60;;;;;;;1.29;53.44;103063.00;1623032;87;25942;-77
2022/03/18 01:22:18;;;;;;;44.70;23.52;;;;;;;1.30;53.50;103068.70;1639477;87;25695;-76
2022/03/18 01:24:45;;;;;;;43.42;21.90;;;;;;;1.29;53.43;103063.00;1640403;86;26526;-77
2022/03/18 01:27:11;;;;;;;45.03;23.42;;;;;;;1.29;53.50;103064.78;1638793;87;25344;-76
2022/03/18 01:29:38;;;;;;;39.75;20.97;;;;;;;1.23;53.62;103059.31;1638943;87;27592;-76
2022/03/18 01:32:05;;;;;;;38.20;21.42;;;;;;;1.18;53.65;103061.29;1640094;87;25892;-76
2022/03/18 01:34:31;;;;;;;39.08;20.05;;;;;;;1.18;53.80;103062.61;1638684;87;25832;-77
2022/03/18 01:36:57;;;;;;;42.27;21.07;;;;;;;1.18;53.85;103053.83;1639005;87;25840;-76
2022/03/18 01:39:23;;;;;;;42.60;19.82;;;;;;;1.15;53.88;103057.48;1638398;87;25815;-76
2022/03/18 01:41:52;;;;;;;41.73;19.48;;;;;;;1.10;53.89;103056.81;1639956;87;28229;-76
2022/03/18 01:44:19;;;;;;;36.70;19.25;;;;;;;1.12;53.97;103060.70;1639942;87;25783;-76
2022/03/18 01:46:45;;;;;;;39.00;19.42;;;;;;;1.12;53.89;103060.24;1640386;87;25819;-75
2022/03/18 01:49:13;;;;;;;38.35;20.00;;;;;;;1.09;53.84;103065.64;1639478;87;26176;-76
2022/03/18 01:51:40;;;;;;;34.65;18.27;;;;;;;1.05;53.89;103063.23;1640056;87;26532;-76
2022/03/18 01:56:52;;;;;;;37.10;18.57;;;;;;;0.98;53.98;103071.00;1641477;86;26238;-76
2022/03/18 01:59:18;;;;;;;36.38;19.00;;;;;;;0.97;54.17;103069.27;1618562;87;25912;-76
2022/03/18 02:01:44;;;;;;;34.58;18.37;;;;;;;0.95;54.20;103074.63;1641467;86;25854;-76
2022/03/18 02:04:11;;;;;;;34.50;19.17;;;;;;;0.96;54.19;103072.84;1647493;86;26176;-76
2022/03/18 02:06:38;;;;;;;33.75;18.80;;;;;;;0.93;54.23;103076.47;1647778;86;26983;-76
2022/03/18 02:09:04;;;;;;;35.50;19.10;;;;;;;0.90;54.31;103076.59;1647431;86;25824;-76
2022/03/18 02:11:31;;;;;;;32.30;18.37;;;;;;;0.86;54.49;103084.69;1647405;86;25859;-77
2022/03/18 02:13:58;;;;;;;32.03;17.98;;;;;;;0.84;54.54;103078.63;1646867;86;25844;-76
2022/03/18 02:16:26;;;;;;;35.70;17.82;;;;;;;0.83;54.62;103083.52;1648006;86;26515;-76
2022/03/18 02:18:52;;;;;;;40.67;19.75;;;;;;;0.84;54.79;103083.44;1647323;86;27549;-76
2022/03/18 02:21:19;;;;;;;34.48;19.37;;;;;;;0.86;54.79;103080.28;1647698;86;25756;-76
2022/03/18 02:23:45;;;;;;;39.80;19.48;;;;;;;0.85;54.78;103081.67;1647974;86;26403;-76
2022/03/18 02:26:15;;;;;;;38.90;19.20;;;;;;;0.81;54.80;103085.36;1648075;86;26109;-76
2022/03/18 02:28:42;;;;;;;34.53;18.47;;;;;;;0.81;54.85;103087.55;1648168;86;25774;-76
2022/03/18 02:31:08;;;;;;;40.58;19.07;;;;;;;0.81;54.83;103086.23;1647466;86;27481;-76
2022/03/18 02:33:35;;;;;;;33.75;17.77;;;;;;;0.80;54.96;103087.14;1637793;86;25892;-76
2022/03/18 02:36:01;;;;;;;32.98;18.55;;;;;;;0.72;54.93;103095.38;1648022;86;25917;-77
2022/03/18 02:38:27;;;;;;;41.18;20.32;;;;;;;0.71;55.10;103096.73;1647761;86;26488;-75
2022/03/18 02:40:53;;;;;;;33.13;18.70;;;;;;;0.68;55.05;103100.36;1647502;86;25831;-76
2022/03/18 02:43:19;;;;;;;40.17;19.10;;;;;;;0.68;55.00;103106.95;1647604;85;28551;-77
2022/03/18 02:45:45;;;;;;;35.20;19.12;;;;;;;0.69;55.08;103106.05;1647976;86;26285;-76
2022/03/18 02:48:12;;;;;;;37.53;19.60;;;;;;;0.70;55.10;103099.00;1648023;86;25867;-76
2022/03/18 02:50:38;;;;;;;37.03;20.23;;;;;;;0.67;55.08;103104.38;1647897;85;26470;-76
2022/03/18 02:53:04;;;;;;;34.83;18.67;;;;;;;0.66;55.17;103103.52;1647747;86;25811;-77
2022/03/18 02:55:30;;;;;;;31.05;17.85;;;;;;;0.66;55.24;103107.47;1648267;86;27483;-77
2022/03/18 02:57:57;;;;;;;31.77;19.05;;;;;;;0.64;55.29;103109.31;1647834;86;25880;-76
2022/03/18 03:00:25;;;;;;;35.95;18.73;;;;;;;0.64;55.30;103111.95;1623149;86;25620;-76
2022/03/18 03:02:52;;;;;;;32.25;18.82;;;;;;;0.62;55.29;103111.16;1619684;87;26566;-76
2022/03/18 03:08:04;;;;;;;33.28;18.80;;;;;;;0.60;55.50;103110.81;1640162;87;27590;-76
2022/03/18 03:10:34;;;;;;;39.33;18.55;;;;;;;0.55;55.59;103117.63;1641121;87;25881;-77
2022/03/18 03:13:06;;;;;;;38.40;20.17;;;;;;;0.54;55.78;103120.30;1640052;87;26362;-77
2022/03/18 03:15:33;;;;;;;37.20;19.02;;;;;;;0.53;55.95;103127.83;1638731;87;27067;-76
2022/03/18 03:17:59;;;;;;;31.15;18.80;;;;;;;0.52;56.00;103130.05;1638459;87;25940;-76
2022/03/18 03:20:25;;;;;;;32.65;19.42;;;;;;;0.52;56.06;103128.73;1629264;87;27571;-76
2022/03/18 03:22:52;;;;;;;37.30;21.17;;;;;;;0.51;56.12;103130.98;1640272;87;25943;-76
2022/03/18 03:25:18;;;;;;;37.93;21.12;;;;;;;0.50;56.26;103137.16;1640039;87;25851;-76
2022/03/18 03:27:44;;;;;;;42.90;20.72;;;;;;;0.46;56.49;103140.39;1640628;87;25775;-76
2022/03/18 03:30:12;;;;;;;44.08;21.40;;;;;;;0.45;56.53;103142.62;1640898;87;25897;-76
2022/03/18 03:32:39;;;;;;;43.70;22.07;;;;;;;0.43;56.61;103151.50;1639632;87;27475;-75
2022/03/18 03:35:07;;;;;;;38.73;19.35;;;;;;;0.40;56.73;103151.19;1639691;87;25908;-77
2022/03/18 03:37:33;;;;;;;39.45;20.65;;;;;;;0.36;56.75;103156.63;1640175;87;26515;-76
2022/03/18 03:39:59;;;;;;;42.83;21.80;;;;;;;0.35;56.92;103154.45;1640667;87;26023;-75
2022/03/18 03:42:26;;;;;;;37.93;21.35;;;;;;;0.34;56.92;103153.20;1639803;87;25813;-75
2022/03/18 03:44:54;;;;;;;37.23;20.72;;;;;;;0.32;57.01;103157.67;1633955;87;28113;-76
2022/03/18 03:47:20;;;;;;;36.65;20.12;;;;;;;0.33;57.08;103157.61;1640081;86;25890;-76
2022/03/18 03:49:46;;;;;;;37.33;21.07;;;;;;;0.32;57.15;103157.67;1641035;87;26474;-75
2022/03/18 03:52:13;;;;;;;40.10;20.40;;;;;;;0.29;57.33;103159.97;1639796;87;26564;-77
2022/03/18 03:54:42;;;;;;;37.73;20.75;;;;;;;0.29;57.34;103160.41;1639828;86;25940;-76
2022/03/18 03:57:09;;;;;;;39.25;22.35;;;;;;;0.27;57.34;103160.48;1640626;87;28319;-76
2022/03/18 03:59:36;;;;;;;36.88;22.42;;;;;;;0.27;57.32;103166.20;1633915;87;26263;-76
2022/03/18 04:02:03;;;;;;;47.43;24.40;;;;;;;0.25;57.42;103167.59;1640142;87;25850;-75
2022/03/18 04:04:29;;;;;;;40.12;23.73;;;;;;;0.22;57.56;103174.73;1646391;86;25861;-76
2022/03/18 04:06:56;;;;;;;43.17;23.92;;;;;;;0.15;57.56;103171.47;1646626;86;26063;-76
2022/03/18 04:09:22;;;;;;;43.73;22.40;;;;;;;0.13;57.69;103169.83;1623925;86;27461;-76
2022/03/18 04:11:48;;;;;;;39.35;22.95;;;;;;;0.09;57.75;103176.11;1646348;86;26482;-76
2022/03/18 04:14:14;;;;;;;44.60;24.05;;;;;;;0.08;57.75;103175.27;1646753;86;25825;-75
2022/03/18 04:16:40;;;;;;;41.48;22.77;;;;;;;0.09;57.76;103181.38;1647832;86;25851;-76
2022/03/18 04:19:07;;;;;;;42.67;22.25;;;;;;;0.07;57.73;103185.39;1639009;86;26146;-76
2022/03/18 04:21:33;;;;;;;40.40;22.65;;;;;;;0.06;57.77;103188.96;1637517;86;27476;-76
2022/03/18 04:24:00;;;;;;;43.85;22.25;;;;;;;0.05;57.68;103190.31;1646105;86;25888;-76
2022/03/18 04:26:26;;;;;;;47.38;22.85;;;;;;;0.05;57.82;103192.95;1647969;86;25845;-76
2022/03/18 04:28:54;;;;;;;41.98;20.77;;;;;;;0.04;57.71;103200.47;1640426;86;25838;-76
2022/03/18 04:31:20;;;;;;;44.15;23.47;;;;;;;0.00;57.79;103203.20;1646928;86;25829;-75
2022/03/18 04:33:46;;;;;;;39.30;22.95;;;;;;;0.00;57.74;103209.79;1646546;86;27463;-76
2022/03/18 04:36:12;;;;;;;43.95;23.52;;;;;;;-0.02;57.68;103218.20;1637208;86;26288;-76
2022/03/18 04:38:39;;;;;;;43.10;24.82;;;;;;;-0.05;57.69;103217.02;1646895;86;25902;-75
2022/03/18 04:41:05;;;;;;;43.70;25.15;;;;;;;-0.09;57.76;103222.45;1637074;86;26629;-75
2022/03/18 04:43:32;;;;;;;48.02;24.30;;;;;;;-0.12;57.83;103222.09;1646783;86;26515;-76
2022/03/18 04:45:58;;;;;;;37.90;22.90;;;;;;;-0.13;57.82;103224.31;1646645;86;28469;-76
2022/03/18 04:48:25;;;;;;;40.83;23.12;;;;;;;-0.14;57.83;103226.56;1646209;86;25854;-77
2022/03/18 04:50:51;;;;;;;42.00;23.65;;;;;;;-0.16;57.86;103225.76;1644061;86;26568;-75
2022/03/18 04:53:18;;;;;;;40.88;22.73;;;;;;;-0.17;57.94;103227.97;1646162;86;26599;-76
2022/03/18 04:55:44;;;;;;;42.75;23.62;;;;;;;-0.18;57.88;103230.67;1646202;86;26694;-76
2022/03/18 04:58:11;;;;;;;41.70;24.77;;;;;;;-0.23;57.88;103234.78;1641366;86;27651;-76
2022/03/18 05:00:37;;;;;;;50.20;29.77;;;;;;;-0.23;58.01;103237.86;1644649;86;26004;-76
2022/03/18 05:03:03;;;;;;;42.67;26.95;;;;;;;-0.26;57.99;103239.30;1640796;86;25925;-76
2022/03/18 05:05:30;;;;;;;49.42;29.95;;;;;;;-0.30;58.04;103242.48;1644924;86;26534;-76
2022/03/18 05:07:57;;;;;;;46.53;27.95;;;;;;;-0.28;58.11;103248.55;1641846;86;26026;-76
2022/03/18 05:10:24;;;;;;;43.20;25.70;;;;;;;-0.27;58.10;103238.44;1646018;87;28260;-76
2022/03/18 05:12:52;;;;;;;45.05;24.87;;;;;;;-0.26;58.14;103240.17;1643890;87;25816;-76
2022/03/18 05:15:19;;;;;;;45.03;24.12;;;;;;;-0.24;58.17;103251.96;1645768;87;25765;-76
2022/03/18 05:17:51;;;;;;;41.53;22.67;;;;;;;-0.27;58.08;103254.69;1641999;86;25786;-76
2022/03/18 05:20:18;;;;;;;54.33;26.30;;;;;;;-0.28;58.13;103258.25;1643966;86;25998;-76
2022/03/18 05:22:46;;;;;;;53.35;28.75;;;;;;;-0.30;58.19;103260.08;1644123;86;28338;-76
2022/03/18 05:25:13;;;;;;;51.02;26.93;;;;;;;-0.31;58.28;103259.21;1644479;86;26578;-76
2022/03/18 05:27:42;;;;;;;47.58;28.42;;;;;;;-0.30;58.33;103273.25;1621750;88;25997;-75
2022/03/18 05:30:12;;;;;;;51.83;28.27;;;;;;;-0.28;58.40;103263.03;1621892;88;26886;-75
2022/03/18 05:32:40;;;;;;;46.08;25.43;;;;;;;-0.24;58.35;103270.40;1618556;88;25866;-76
2022/03/18 05:35:08;;;;;;;55.03;24.85;;;;;;;-0.23;58.32;103269.02;1618319;88;27480;-76
2022/03/18 05:37:34;;;;;;;39.90;21.55;;;;;;;-0.21;58.30;103278.17;1617442;88;25807;-77
2022/03/18 05:40:00;;;;;;;41.73;22.62;;;;;;;-0.20;58.33;103278.14;1644862;87;25848;-76
2022/03/18 05:42:27;;;;;;;43.60;23.18;;;;;;;-0.20;58.33;103282.55;1643516;86;25870;-76
2022/03/18 05:44:53;;;;;;;39.53;22.32;;;;;;;-0.21;58.39;103283.44;1629602;86;25940;-76
2022/03/18 05:47:20;;;;;;;44.67;22.07;;;;;;;-0.20;58.55;103283.41;1645004;87;27679;-76
2022/03/18 05:49:47;;;;;;;42.13;21.12;;;;;;;-0.20;58.55;103283.41;1645737;86;25977;-78
2022/03/18 05:52:13;;;;;;;40.30;21.45;;;;;;;-0.17;58.72;103283.77;1643204;86;25934;-76
2022/03/18 05:54:39;;;;;;;42.55;23.10;;;;;;;-0.16;58.78;103287.66;1645970;86;25821;-77
2022/03/18 05:57:05;;;;;;;35.25;21.82;;;;;;;-0.12;58.88;103288.41;1641572;86;25781;-78
2022/03/18 05:59:35;;;;;;;38.90;23.85;;;;;;;-0.07;58.84;103294.38;1646300;86;28338;-76
2022/03/18 06:02:02;;;;;;;41.30;21.48;;;;;;;-0.07;58.88;103297.89;1630253;86;25798;-76
2022/03/18 06:04:31;;;;;;;36.70;22.27;;;;;;;-0.04;58.92;103298.21;1634148;86;25872;-77
2022/03/18 06:06:57;;;;;;;35.92;22.25;;;;;;;0.01;58.87;103300.24;1635138;86;25962;-76
2022/03/18 06:12:09;;;;;;;42.33;21.45;;;;;;;0.12;58.86;103302.05;1644847;86;27480;-76
2022/03/18 06:14:36;;;;;;;38.58;21.82;;;;;;;0.19;58.77;103311.47;1649763;85;25795;-77
2022/03/18 06:17:05;;;;;;;46.55;22.65;;;;;;;0.23;58.64;103310.44;1648305;86;25949;-77
2022/03/18 06:19:32;;;;;;;34.90;20.15;;;;;;;0.30;58.60;103317.19;1641462;85;26589;-76
2022/03/18 06:22:00;;;;;;;39.25;19.15;;;;;;;0.40;58.64;103312.02;1647577;86;25866;-76
2022/03/18 06:24:29;;;;;;;48.67;23.77;;;;;;;0.44;58.43;103322.84;1647286;86;27498;-76
2022/03/18 06:26:56;;;;;;;45.98;24.10;;;;;;;0.50;58.43;103323.94;1648303;86;25967;-76
2022/03/18 06:29:23;;;;;;;39.15;22.02;;;;;;;0.58;58.46;103327.59;1648049;86;25745;-76
2022/03/18 06:31:50;;;;;;;35.23;20.60;;;;;;;0.64;58.21;103327.40;1647800;86;25965;-77
2022/03/18 06:34:18;;;;;;;70.85;35.13;;;;;;;0.69;57.91;103322.34;1647845;86;25760;-76
2022/03/18 06:36:44;;;;;;;51.77;27.90;;;;;;;0.77;57.98;103324.67;1648134;86;27472;-75
2022/03/18 06:39:11;;;;;;;35.10;21.15;;;;;;;0.86;57.95;103333.57;1647940;86;26419;-76
2022/03/18 06:41:37;;;;;;;33.65;18.95;;;;;;;0.93;57.80;103332.43;1647883;85;25842;-76
2022/03/18 06:44:06;;;;;;;44.00;20.82;;;;;;;1.00;57.58;103343.61;1647941;86;25832;-76
2022/03/18 06:46:32;;;;;;;40.98;21.75;;;;;;;1.08;57.65;103345.04;1648008;86;25399;-82
2022/03/18 06:48:59;;;;;;;37.80;19.05;;;;;;;1.18;57.52;103347.71;1644574;86;28424;-76
2022/03/18 06:51:25;;;;;;;33.35;20.10;;;;;;;1.26;57.63;103346.94;1647347;86;25865;-76
2022/03/18 06:53:54;;;;;;;34.88;20.00;;;;;;;1.34;57.54;103344.89;1640869;86;26479;-78
2022/03/18 06:56:21;;;;;;;32.50;17.57;;;;;;;1.40;57.35;103351.23;1643940;86;25955;-76
2022/03/18 06:58:47;;;;;;;36.55;20.12;;;;;;;1.47;57.19;103349.22;1633260;86;25850;-77
2022/03/18 07:01:15;;;;;;;36.95;20.02;;;;;;;1.52;57.11;103352.06;1643396;86;27476;-77
2022/03/18 07:03:41;;;;;;;33.48;18.57;;;;;;;1.60;57.24;103354.86;1643790;86;25855;-76
2022/03/18 07:06:07;;;;;;;43.92;21.73;;;;;;;1.68;57.18;103356.72;1635283;86;25818;-76
2022/03/18 07:08:34;;;;;;;34.27;19.85;;;;;;;1.77;56.78;103346.65;1639599;86;26512;-77
2022/03/18 07:11:02;;;;;;;38.38;18.73;;;;;;;1.87;56.27;103353.27;1639031;87;25856;-77
2022/03/18 07:13:29;;;;;;;30.68;17.62;;;;;;;1.93;56.22;103357.42;1634247;87;27455;-76
2022/03/18 07:15:55;;;;;;;31.40;18.00;;;;;;;2.01;56.19;103356.17;1633008;87;26004;-76
2022/03/18 07:18:24;;;;;;;28.42;17.07;;;;;;;2.11;55.69;103355.34;1632575;86;25995;-77
2022/03/18 07:20:50;;;;;;;24.55;15.65;;;;;;;2.17;54.98;103351.97;1633170;87;26264;-76
2022/03/18 07:23:19;;;;;;;31.87;16.82;;;;;;;2.25;54.13;103354.27;1638744;87;25945;-75
2022/03/18 07:25:48;;;;;;;68.67;32.00;;;;;;;2.31;54.90;103356.64;1641450;87;27680;-78
2022/03/18 07:28:16;;;;;;;31.40;16.23;;;;;;;2.42;55.13;103353.07;1639348;87;25354;-76
2022/03/18 07:30:45;;;;;;;26.73;15.03;;;;;;;2.52;54.09;103353.08;1597184;88;26649;-76
2022/03/18 07:33:12;;;;;;;27.48;16.02;;;;;;;2.57;53.51;103355.04;1618157;88;25746;-76
2022/03/18 07:35:38;;;;;;;24.25;14.53;;;;;;;2.62;53.49;103359.67;1619466;86;25946;-75
2022/03/18 07:38:08;;;;;;;25.48;15.18;;;;;;;2.69;53.52;103361.58;1622103;86;27476;-76
2022/03/18 07:40:34;;;;;;;22.65;14.25;;;;;;;2.77;53.30;103360.31;1619617;86;25723;-77
2022/03/18 07:43:00;;;;;;;31.57;14.75;;;;;;;2.86;53.15;103368.30;1627450;86;25814;-75
2022/03/18 07:45:30;;;;;;;24.07;14.07;;;;;;;2.94;52.70;103367.02;1640493;87;25858;-76
2022/03/18 07:48:00;;;;;;;29.18;13.98;;;;;;;3.02;52.23;103373.27;1635752;87;25866;-76
2022/03/18 07:50:29;;;;;;;24.52;12.82;;;;;;;3.09;52.30;103367.64;1633362;87;27498;-76
2022/03/18 07:53:00;;;;;;;21.87;13.15;;;;;;;3.21;51.92;103378.10;1637974;86;25869;-77
2022/03/18 07:55:29;;;;;;;20.75;13.22;;;;;;;3.29;51.69;103372.46;1636641;87;25932;-78
2022/03/18 07:57:57;;;;;;;21.07;13.25;;;;;;;3.38;50.98;103374.69;1639797;87;25852;-76
2022/03/18 08:00:24;;;;;;;22.77;12.88;;;;;;;3.45;50.69;103386.22;1633153;87;26626;-76
2022/03/18 08:02:53;;;;;;;27.32;11.83;;;;;;;3.51;50.63;103379.76;1634764;87;27651;-76
2022/03/18 08:05:20;;;;;;;24.63;13.03;;;;;;;3.59;50.68;103370.50;1637784;87;26538;-76
2022/03/18 08:07:47;;;;;;;21.15;12.82;;;;;;;3.68;50.89;103374.04;1632676;86;25526;-77
2022/03/18 08:10:15;;;;;;;23.38;13.13;;;;;;;3.79;49.97;103377.03;1637815;87;25943;-77
2022/03/18 08:12:43;;;;;;;23.70;13.68;;;;;;;3.86;48.81;103381.11;1639531;87;25370;-76
2022/03/18 08:15:13;;;;;;;26.87;14.87;;;;;;;3.89;48.97;103388.05;1618707;87;27443;-76
2022/03/18 08:17:40;;;;;;;25.25;12.25;;;;;;;3.91;49.31;103390.16;1635756;87;26549;-76
2022/03/18 08:20:10;;;;;;;22.37;12.53;;;;;;;3.99;49.34;103387.11;1619678;88;25909;-76
2022/03/18 08:22:37;;;;;;;21.17;12.25;;;;;;;4.06;48.64;103388.07;1624936;87;26740;-76
2022/03/18 08:25:08;;;;;;;22.55;12.28;;;;;;;4.11;48.55;103391.33;1644340;85;25722;-77
2022/03/18 08:27:35;;;;;;;21.50;11.78;;;;;;;4.19;48.78;103387.81;1644512;86;27478;-77
2022/03/18 08:30:04;;;;;;;18.65;11.33;;;;;;;4.29;47.04;103385.11;1648033;86;26507;-76
2022/03/18 08:32:30;;;;;;;19.27;11.30;;;;;;;4.33;47.98;103382.68;1647582;86;25346;-76
2022/03/18 08:34:57;;;;;;;19.92;10.28;;;;;;;4.42;47.10;103383.54;1648169;86;26008;-76
2022/03/18 08:40:11;;;;;;;18.55;11.12;;;;;;;4.48;46.84;103372.59;1623660;87;27539;-76
2022/03/18 08:42:39;;;;;;;19.82;11.15;;;;;;;4.57;46.90;103372.59;1623622;87;52788;-76
2022/03/18 08:45:07;;;;;;;15.15;9.70;;;;;;;4.65;46.59;103369.05;1624471;87;25828;-77
2022/03/18 08:47:33;;;;;;;18.50;10.68;;;;;;;4.72;46.19;103377.55;1619811;87;25838;-77
2022/03/18 08:49:59;;;;;;;20.12;9.25;;;;;;;4.78;46.16;103380.73;1621665;87;25925;-76
2022/03/18 08:52:26;;;;;;;16.02;9.20;;;;;;;4.83;44.97;103384.02;1625287;87;27578;-77
2022/03/18 08:54:52;;;;;;;16.55;10.03;;;;;;;4.85;45.42;103377.28;1624941;87;25775;-77
2022/03/18 08:57:18;;;;;;;17.00;10.40;;;;;;;4.91;44.96;103382.27;1626353;87;25788;-76
2022/03/18 08:59:45;;;;;;;18.85;9.35;;;;;;;4.98;45.41;103383.20;1619193;88;25876;-75
2022/03/18 09:02:11;;;;;;;18.92;9.08;;;;;;;5.02;44.64;103377.23;1621305;87;25825;-76
2022/03/18 09:04:37;;;;;;;14.80;9.18;;;;;;;5.06;44.74;103388.08;1640471;85;27471;-77
2022/03/18 09:07:04;;;;;;;18.20;9.03;;;;;;;5.11;44.00;103386.88;1648304;85;25615;-77
2022/03/18 09:09:30;;;;;;;15.00;10.13;;;;;;;5.14;44.25;103389.37;1638402;85;26475;-76
2022/03/18 09:11:57;;;;;;;19.57;9.78;;;;;;;5.21;44.56;103392.09;1640293;85;25794;-76
2022/03/18 09:14:23;;;;;;;18.02;9.75;;;;;;;5.24;43.66;103389.24;1652998;85;26567;-76
2022/03/18 09:16:50;;;;;;;14.65;9.70;;;;;;;5.31;44.64;103390.63;1636057;86;27628;-76
2022/03/18 09:19:16;;;;;;;15.40;8.93;;;;;;;5.40;44.58;103390.59;1633876;86;26187;-77
2022/03/18 09:21:42;;;;;;;14.70;8.63;;;;;;;5.48;42.47;103382.58;1640034;86;25854;-76
2022/03/18 09:24:08;;;;;;;16.97;8.83;;;;;;;5.54;43.55;103388.50;1633508;86;25845;-77
2022/03/18 09:26:35;;;;;;;14.07;8.50;;;;;;;5.63;43.80;103395.94;1637478;86;26764;-77
2022/03/18 09:29:01;;;;;;;15.00;8.60;;;;;;;5.68;43.19;103394.75;1637735;86;27492;-76
2022/03/18 09:31:27;;;;;;;13.50;7.40;;;;;;;5.78;43.95;103395.93;1632927;86;25893;-80
2022/03/18 09:33:54;;;;;;;14.45;8.43;;;;;;;5.86;43.09;103395.54;1638357;85;25952;-79
2022/03/18 09:36:23;;;;;;;16.52;8.63;;;;;;;5.91;42.81;103397.44;1637927;86;25835;-77
2022/03/18 09:38:50;;;;;;;13.85;8.43;;;;;;;5.96;42.86;103398.04;1634736;86;25816;-76
2022/03/18 09:41:18;;;;;;;14.15;9.45;;;;;;;6.01;42.37;103390.16;1647580;86;27455;-76
2022/03/18 09:43:44;;;;;;;15.95;8.78;;;;;;;6.07;42.33;103387.64;1644671;86;25919;-76
2022/03/18 09:46:13;;;;;;;30.27;11.95;;;;;;;6.15;42.42;103392.03;1645929;86;25824;-76
2022/03/18 09:48:40;;;;;;;31.62;11.12;;;;;;;6.21;42.27;103393.85;1646116;86;26347;-77
2022/03/18 09:51:08;;;;;;;14.85;9.00;;;;;;;6.29;41.20;103397.88;1647762;86;25885;-77
2022/03/18 09:53:34;;;;;;;14.50;8.60;;;;;;;6.31;40.76;103396.81;1646627;86;27499;-76
2022/03/18 09:56:02;;;;;;;16.93;9.25;;;;;;;6.30;40.52;103391.12;1641347;86;25872;-77
2022/03/18 09:58:30;;;;;;;16.87;10.48;;;;;;;6.34;41.75;103395.77;1647382;86;26531;-77
2022/03/18 10:01:01;;;;;;;16.05;8.58;;;;;;;6.38;39.85;103397.30;1641295;86;25983;-76
2022/03/18 10:03:42;;;;;;;15.68;8.35;;;;;;;6.42;40.63;103393.04;1633903;86;25437;-77
2022/03/18 10:06:11;;;;;;;14.23;9.90;;;;;;;6.46;39.94;103389.73;1643565;86;27488;-77
2022/03/18 10:08:42;;;;;;;17.07;9.88;;;;;;;6.47;40.00;103386.97;1635609;86;25834;-76
2022/03/18 10:11:18;;;;;;;13.55;8.03;;;;;;;6.49;39.36;103386.41;1644375;86;26572;-79
2022/03/18 10:14:11;;;;;;;12.47;8.30;;;;;;;6.52;40.01;103388.03;1642242;85;25824;-76
2022/03/18 10:16:48;;;;;;;13.85;9.13;;;;;;;6.58;40.29;103399.17;1636209;86;26591;-77
2022/03/18 10:19:18;;;;;;;14.33;8.80;;;;;;;6.64;39.62;103393.47;1645830;86;27200;-77
2022/03/18 10:22:00;;;;;;;14.50;9.10;;;;;;;6.70;40.13;103402.41;1644045;86;26542;-77
2022/03/18 10:24:33;;;;;;;14.40;9.00;;;;;;;6.77;39.75;103405.55;1634433;86;25885;-77
2022/03/18 10:27:16;;;;;;;15.58;8.83;;;;;;;6.81;39.98;103403.95;1644314;86;25761;-78
2022/03/18 10:29:54;;;;;;;14.80;8.48;;;;;;;6.90;40.17;103407.38;1646711;86;25984;-78
2022/03/18 10:32:29;;;;;;;22.15;13.08;;;;;;;6.96;39.26;103400.80;1644181;86;27479;-78
2022/03/18 10:37:49;;;;;;;19.80;11.90;;;;;;;6.98;38.68;103398.42;1594761;89;26141;-79
2022/03/18 10:40:20;;;;;;;19.12;11.48;;;;;;;6.96;39.16;103400.34;1642995;86;25783;-77
2022/03/18 10:42:58;;;;;;;;;;;;;;;7.02;39.52;103395.09;1645236;86;25832;-76
2022/03/18 10:45:24;;;;;;;22.40;13.50;;;;;;;7.07;39.32;103398.33;1644048;86;27502;-77
2022/03/18 10:47:51;;;;;;;15.50;9.68;;;;;;;7.09;39.67;103399.55;1645538;86;25751;-76
2022/03/18 10:50:29;;;;;;;14.85;9.35;;;;;;;7.12;37.99;103386.05;1644909;86;25839;-76
2022/03/18 10:53:01;;;;;;;22.30;10.95;;;;;;;7.12;38.43;103391.38;1643928;86;26772;-77
2022/03/18 10:55:43;;;;;;;36.42;17.10;;;;;;;7.18;38.83;103399.85;1645414;86;25811;-77
2022/03/18 10:58:15;;;;;;;;;;;;;;;7.28;38.37;103389.44;1645184;86;27485;-76
2022/03/18 11:00:52;;;;;;;18.95;9.55;;;;;;;7.33;38.83;103396.69;1645280;86;25745;-77
2022/03/18 11:03:16;;;;;;;14.58;9.20;;;;;;;7.40;39.37;103394.84;1643580;86;25919;-77
2022/03/18 11:05:47;;;;;;;19.07;9.20;;;;;;;7.46;38.18;103390.45;1644360;86;26292;-77
2022/03/18 11:08:23;;;;;;;15.90;9.15;;;;;;;7.49;38.15;103387.59;1635139;87;26081;-77
2022/03/18 11:11:07;;;;;;;17.07;8.85;;;;;;;7.52;38.13;103390.08;1640981;87;27495;-77
2022/03/18 11:13:53;;;;;;;14.03;9.65;;;;;;;7.55;38.38;103382.33;1629549;87;26800;-77
2022/03/18 11:16:29;;;;;;;17.30;9.88;;;;;;;7.56;38.28;103388.92;1641492;87;26102;-77
2022/03/18 11:18:58;;;;;;;14.58;9.03;;;;;;;7.59;37.53;103380.70;1635193;87;26243;-77
2022/03/18 11:21:35;;;;;;;14.13;8.50;;;;;;;7.64;37.76;103381.27;1634564;87;25872;-77
2022/03/18 11:23:55;;;;;;;14.80;9.70;;;;;;;7.66;38.03;103379.83;1635135;86;28234;-76
2022/03/18 11:26:22;;;;;;;13.10;8.35;;;;;;;7.71;37.56;103382.59;1644830;86;25872;-77
2022/03/18 11:29:10;;;;;;;15.32;9.13;;;;;;;7.77;37.65;103378.17;1640195;87;25893;-77
2022/03/18 11:31:37;;;;;;;16.07;9.55;;;;;;;7.80;37.50;103389.13;1632972;86;25800;-77
2022/03/18 11:34:12;;;;;;;15.90;9.35;;;;;;;7.83;37.98;103383.57;1640204;87;25608;-77
2022/03/18 11:36:48;;;;;;;13.83;8.50;;;;;;;7.89;37.44;103383.16;1640860;87;27496;-77
2022/03/18 11:39:21;;;;;;;15.08;8.98;;;;;;;7.91;36.57;103382.61;1624071;87;26570;-76
2022/03/18 11:41:55;;;;;;;16.70;9.05;;;;;;;7.89;37.05;103375.16;1638004;85;25932;-77